Time;durP1;ratioP1;P1;durP2;ratioP2;P2;SDS_P1;SDS_P2;PMS_P1;PMS_P2;Temp;Humidity;BMP_temperature;BMP_pressure;BME280_temperature;BME280_humidity;BME280_pressure;Samples;Min_cycle;Max_cycle;Signal;HPM_P1;HPM_P2
2021/04/19 00:02:06;;;;;;;12.98;10.80;;;6.70;81.70;;;;;;5036423;28;20033;-72
2021/04/19 00:04:32;;;;;;;12.73;10.38;;;6.60;82.40;;;;;;5036658;28;20025;-72
2021/04/19 00:06:58;;;;;;;13.35;11.93;;;6.40;82.80;;;;;;5036694;28;20045;-72
2021/04/19 00:09:23;;;;;;;12.35;11.05;;;6.40;82.60;;;;;;5036716;28;20091;-72
2021/04/19 00:11:49;;;;;;;14.68;11.05;;;6.50;82.60;;;;;;5036588;28;20037;-72
2021/04/19 00:14:15;;;;;;;15.80;11.60;;;6.40;84.20;;;;;;5036247;28;20108;-72
2021/04/19 00:16:40;;;;;;;11.88;10.57;;;6.40;83.90;;;;;;5036589;28;20017;-72
2021/04/19 00:19:07;;;;;;;15.63;12.30;;;6.40;83.50;;;;;;5036626;28;20152;-72
2021/04/19 00:21:32;;;;;;;12.23;10.88;;;6.40;83.60;;;;;;5036565;28;20022;-72
2021/04/19 00:23:58;;;;;;;12.25;10.13;;;6.40;82.60;;;;;;5036442;28;20124;-72
2021/04/19 00:26:24;;;;;;;12.27;10.30;;;6.50;82.40;;;;;;5036104;28;20057;-72
2021/04/19 00:28:50;;;;;;;12.70;10.73;;;6.60;82.20;;;;;;5036489;28;20396;-72
2021/04/19 00:31:15;;;;;;;13.30;10.93;;;6.60;83.00;;;;;;5036161;28;20075;-72
2021/04/19 00:33:41;;;;;;;12.95;10.52;;;6.70;82.70;;;;;;5036405;28;20034;-72
2021/04/19 00:36:07;;;;;;;14.43;10.95;;;6.70;82.10;;;;;;5036426;28;20017;-72
2021/04/19 00:38:33;;;;;;;12.15;10.80;;;6.70;82.90;;;;;;5036377;28;20017;-72
2021/04/19 00:41:01;;;;;;;12.25;10.73;;;6.80;82.70;;;;;;5036403;28;20029;-72
2021/04/19 00:43:27;;;;;;;13.13;11.73;;;6.80;82.90;;;;;;5036289;28;20033;-72
2021/04/19 00:46:01;;;;;;;13.20;10.93;;;6.90;81.80;;;;;;5036017;28;20055;-72
2021/04/19 00:48:27;;;;;;;12.48;10.27;;;6.90;81.30;;;;;;5036331;28;20038;-72
2021/04/19 00:50:55;;;;;;;13.15;11.15;;;6.90;81.30;;;;;;5036238;28;20033;-72
2021/04/19 00:53:22;;;;;;;14.27;11.20;;;6.90;80.80;;;;;;5036154;28;20044;-72
2021/04/19 00:55:48;;;;;;;12.43;11.10;;;6.90;80.70;;;;;;5036246;28;20041;-72
2021/04/19 00:58:17;;;;;;;12.60;11.15;;;6.90;80.70;;;;;;5039483;28;20436;-72
2021/04/19 01:00:43;;;;;;;12.55;11.23;;;6.80;80.70;;;;;;5039745;28;20037;-72
2021/04/19 01:03:09;;;;;;;15.68;11.05;;;6.70;81.10;;;;;;5039673;28;20039;-72
2021/04/19 01:05:40;;;;;;;13.77;11.93;;;6.60;81.40;;;;;;5039204;28;20030;-72
2021/04/19 01:08:09;;;;;;;12.27;10.80;;;6.50;81.70;;;;;;5039257;28;20026;-72
2021/04/19 01:10:37;;;;;;;12.10;10.73;;;6.40;82.50;;;;;;5039497;28;20028;-72
2021/04/19 01:13:05;;;;;;;12.73;11.15;;;6.40;82.70;;;;;;5039464;28;20040;-72
2021/04/19 01:15:31;;;;;;;14.23;11.35;;;6.30;82.20;;;;;;5039064;28;20036;-72
2021/04/19 01:17:57;;;;;;;12.82;11.25;;;6.20;82.50;;;;;;5039097;28;20030;-72
2021/04/19 01:20:26;;;;;;;14.20;10.95;;;6.10;82.40;;;;;;5039371;28;20029;-72
2021/04/19 01:22:52;;;;;;;13.32;10.98;;;6.10;82.60;;;;;;5038852;28;20028;-72
2021/04/19 01:25:20;;;;;;;12.88;11.32;;;6.10;82.70;;;;;;5038928;28;20049;-72
2021/04/19 01:27:46;;;;;;;11.52;10.32;;;6.20;82.50;;;;;;5038947;28;20033;-72
2021/04/19 01:30:15;;;;;;;13.85;10.85;;;6.30;82.00;;;;;;5038840;28;20109;-72
2021/04/19 01:32:40;;;;;;;13.43;11.20;;;6.30;81.60;;;;;;5039123;28;20029;-72
2021/04/19 01:35:07;;;;;;;12.90;10.75;;;6.30;81.40;;;;;;5038700;28;20480;-72
2021/04/19 01:37:33;;;;;;;13.40;11.38;;;6.30;80.30;;;;;;5038762;28;20026;-72
2021/04/19 01:39:58;;;;;;;14.07;12.02;;;6.30;80.30;;;;;;5039012;28;20021;-72
2021/04/19 01:42:24;;;;;;;13.18;10.93;;;6.30;80.40;;;;;;5038927;28;20033;-72
2021/04/19 01:44:50;;;;;;;13.77;11.50;;;6.30;81.30;;;;;;5038542;28;20342;-72
2021/04/19 01:47:17;;;;;;;12.32;10.43;;;6.40;80.80;;;;;;5038555;28;20033;-72
2021/04/19 01:49:43;;;;;;;11.98;9.52;;;6.40;79.40;;;;;;5037528;28;20021;-72
2021/04/19 01:52:08;;;;;;;12.18;9.43;;;6.30;79.00;;;;;;5038481;28;20033;-72
2021/04/19 01:54:34;;;;;;;11.38;9.90;;;6.30;78.70;;;;;;5038286;28;20029;-72
2021/04/19 01:57:00;;;;;;;11.85;9.18;;;6.20;79.10;;;;;;5038675;28;20057;-72
2021/04/19 01:59:26;;;;;;;11.80;9.52;;;6.20;78.10;;;;;;5038349;28;20021;-72
2021/04/19 02:02:19;;;;;;;10.85;9.05;;;6.20;77.70;;;;;;5038241;28;20038;-72
2021/04/19 02:04:57;;;;;;;10.85;8.98;;;6.40;77.40;;;;;;5038488;28;20033;-72
2021/04/19 02:07:25;;;;;;;10.80;8.88;;;6.50;77.20;;;;;;5038216;28;20033;-72
2021/04/19 02:10:16;;;;;;;10.80;9.07;;;6.60;77.10;;;;;;5038431;28;20033;-72
2021/04/19 02:12:49;;;;;;;11.23;8.93;;;6.60;76.90;;;;;;5038038;28;20079;-72
2021/04/19 02:15:27;;;;;;;11.43;9.35;;;6.60;77.00;;;;;;5037949;28;20037;-72
2021/04/19 02:18:09;;;;;;;10.15;8.68;;;6.60;77.90;;;;;;5038311;28;20326;-72
2021/04/19 02:20:39;;;;;;;13.43;8.88;;;6.70;77.60;;;;;;5038230;28;20037;-72
2021/04/19 02:23:29;;;;;;;10.35;8.50;;;6.60;77.40;;;;;;5038115;28;20026;-72
2021/04/19 02:26:01;;;;;;;12.52;9.50;;;6.70;77.00;;;;;;5037812;28;20425;-72
2021/04/19 02:28:36;;;;;;;11.07;8.98;;;6.70;77.00;;;;;;5037786;28;20471;-72
2021/04/19 02:31:07;;;;;;;12.20;9.02;;;6.80;77.20;;;;;;5037943;28;20032;-72
2021/04/19 02:33:38;;;;;;;10.77;8.43;;;6.70;76.80;;;;;;5037928;28;20029;-72
2021/04/19 02:36:09;;;;;;;10.77;9.18;;;6.70;76.80;;;;;;5037937;28;20071;-72
2021/04/19 02:38:37;;;;;;;8.98;7.78;;;6.70;76.80;;;;;;5037596;28;20025;-72
2021/04/19 02:41:06;;;;;;;14.52;8.40;;;6.70;76.60;;;;;;5037541;28;20430;-72
2021/04/19 02:43:34;;;;;;;10.43;8.75;;;6.70;77.20;;;;;;5037732;28;20306;-72
2021/04/19 02:46:00;;;;;;;13.23;8.60;;;6.60;77.70;;;;;;5037430;28;20038;-72
2021/04/19 02:48:27;;;;;;;9.30;7.78;;;6.60;76.80;;;;;;5037633;28;20032;-72
2021/04/19 02:50:53;;;;;;;10.15;8.23;;;6.60;76.90;;;;;;5037594;28;20029;-72
2021/04/19 02:53:20;;;;;;;10.35;8.40;;;6.60;76.40;;;;;;5037590;28;20106;-72
2021/04/19 02:55:47;;;;;;;10.23;8.55;;;6.70;76.40;;;;;;5037561;28;20053;-72
2021/04/19 02:58:16;;;;;;;12.05;9.35;;;6.70;76.20;;;;;;5037526;28;20057;-72
2021/04/19 03:00:48;;;;;;;11.35;9.25;;;6.80;76.20;;;;;;5037526;28;20029;-72
2021/04/19 03:03:26;;;;;;;10.68;8.45;;;6.80;76.20;;;;;;5037462;28;20091;-72
2021/04/19 03:05:54;;;;;;;10.70;9.27;;;6.90;76.00;;;;;;5037415;28;20105;-72
2021/04/19 03:08:23;;;;;;;12.25;8.25;;;6.90;75.90;;;;;;5037070;28;20026;-72
2021/04/19 03:10:57;;;;;;;10.00;7.78;;;6.90;75.40;;;;;;5037268;28;20032;-72
2021/04/19 03:13:25;;;;;;;10.80;8.85;;;7.00;75.20;;;;;;5036981;28;20480;-72
2021/04/19 03:15:53;;;;;;;13.00;9.27;;;7.10;75.40;;;;;;5036977;28;20368;-72
2021/04/19 03:18:20;;;;;;;9.48;8.13;;;7.10;75.70;;;;;;5036754;28;20350;-72
2021/04/19 03:21:04;;;;;;;8.93;8.02;;;7.10;75.20;;;;;;5036492;28;20112;-72
2021/04/19 03:23:32;;;;;;;7.53;6.65;;;7.00;76.30;;;;;;5037112;28;20064;-72
2021/04/19 03:26:00;;;;;;;9.60;8.10;;;7.00;75.40;;;;;;5036734;28;20346;-72
2021/04/19 03:28:28;;;;;;;10.93;8.85;;;7.00;75.60;;;;;;5036770;28;20080;-72
2021/04/19 03:30:53;;;;;;;12.63;8.23;;;7.00;75.60;;;;;;5036955;28;20104;-72
2021/04/19 03:33:20;;;;;;;10.70;9.02;;;7.00;75.80;;;;;;5036702;28;20417;-72
2021/04/19 03:35:46;;;;;;;10.93;8.38;;;6.90;76.10;;;;;;5036984;28;20067;-72
2021/04/19 03:38:18;;;;;;;8.73;7.55;;;6.90;76.30;;;;;;5036976;28;20104;-72
2021/04/19 03:40:45;;;;;;;13.27;9.60;;;6.90;76.30;;;;;;5036777;28;20026;-72
2021/04/19 03:43:15;;;;;;;13.00;9.30;;;6.90;76.70;;;;;;5036620;28;20159;-72
2021/04/19 03:45:42;;;;;;;14.10;9.65;;;7.00;76.50;;;;;;5036521;28;20068;-72
2021/04/19 03:48:12;;;;;;;10.70;9.18;;;6.90;76.40;;;;;;5036851;28;20036;-72
2021/04/19 03:50:45;;;;;;;9.40;8.32;;;6.90;76.20;;;;;;5036511;28;20029;-72
2021/04/19 03:53:11;;;;;;;10.95;8.50;;;6.90;76.30;;;;;;5036558;28;20030;-72
2021/04/19 03:55:38;;;;;;;9.50;8.30;;;6.90;76.10;;;;;;5036406;28;20111;-72
2021/04/19 03:58:06;;;;;;;8.40;7.22;;;6.90;76.10;;;;;;5036783;28;20026;-72
2021/04/19 04:00:33;;;;;;;9.88;7.63;;;6.90;76.40;;;;;;5036443;28;20432;-72
2021/04/19 04:03:00;;;;;;;8.50;7.32;;;6.80;76.20;;;;;;5036774;28;20034;-72
2021/04/19 04:05:26;;;;;;;11.23;8.15;;;6.90;76.20;;;;;;5036658;28;20087;-72
2021/04/19 04:07:54;;;;;;;6.95;5.85;;;6.90;76.30;;;;;;5036427;28;20021;-72
2021/04/19 04:10:21;;;;;;;9.95;8.20;;;7.00;75.50;;;;;;5036600;28;20110;-72
2021/04/19 04:12:48;;;;;;;10.18;8.40;;;6.90;76.30;;;;;;5036683;28;20025;-72
2021/04/19 04:15:14;;;;;;;10.48;8.32;;;6.90;76.10;;;;;;5036227;28;20398;-72
2021/04/19 04:17:39;;;;;;;9.95;8.02;;;6.80;76.50;;;;;;5036287;28;20024;-72
2021/04/19 04:20:06;;;;;;;10.35;8.18;;;6.80;76.60;;;;;;5036931;28;20112;-72
2021/04/19 04:22:32;;;;;;;10.63;7.80;;;6.80;76.40;;;;;;5036298;28;20022;-72
2021/04/19 04:25:00;;;;;;;10.32;8.38;;;6.80;76.40;;;;;;5036271;28;20045;-72
2021/04/19 04:27:26;;;;;;;9.02;8.10;;;6.70;76.70;;;;;;5036575;28;20021;-72
2021/04/19 04:29:52;;;;;;;8.77;7.28;;;6.80;76.40;;;;;;5036584;28;20025;-72
2021/04/19 04:32:18;;;;;;;8.85;7.30;;;6.80;76.30;;;;;;5039911;28;20033;-72
2021/04/19 04:34:44;;;;;;;8.60;7.18;;;6.80;76.10;;;;;;5039847;28;20026;-72
2021/04/19 04:37:09;;;;;;;9.18;7.57;;;6.80;76.20;;;;;;5039916;28;20040;-72
2021/04/19 04:39:35;;;;;;;10.55;7.70;;;6.80;76.40;;;;;;5040164;28;20021;-72
2021/04/19 04:42:03;;;;;;;8.13;7.32;;;6.80;76.30;;;;;;5040128;28;20032;-72
2021/04/19 04:44:37;;;;;;;9.52;7.75;;;6.80;77.00;;;;;;5039999;28;20338;-72
2021/04/19 04:47:21;;;;;;;7.93;7.07;;;6.80;76.50;;;;;;5039748;28;20084;-72
2021/04/19 04:49:56;;;;;;;8.32;7.05;;;6.80;76.50;;;;;;5040001;28;20033;-72
2021/04/19 04:52:22;;;;;;;8.40;7.55;;;6.90;76.40;;;;;;5039579;28;20025;-72
2021/04/19 04:54:49;;;;;;;9.27;8.02;;;6.90;76.80;;;;;;5039965;28;20101;-72
2021/04/19 04:57:24;;;;;;;8.75;7.85;;;6.90;76.40;;;;;;5039827;28;20368;-72
2021/04/19 04:59:51;;;;;;;11.23;7.68;;;6.90;76.20;;;;;;5039809;28;20030;-72
2021/04/19 05:02:23;;;;;;;11.05;6.93;;;7.00;75.90;;;;;;5039708;28;20029;-72
2021/04/19 05:04:51;;;;;;;7.30;6.60;;;7.00;76.10;;;;;;5039596;28;20033;-72
2021/04/19 05:07:18;;;;;;;8.43;6.20;;;7.10;75.30;;;;;;5039307;28;20025;-72
2021/04/19 05:09:46;;;;;;;8.02;7.07;;;7.20;75.00;;;;;;5039615;28;20029;-72
2021/04/19 05:12:13;;;;;;;7.72;6.50;;;7.30;74.40;;;;;;5039466;28;20029;-72
2021/04/19 05:14:39;;;;;;;6.70;5.97;;;7.40;75.30;;;;;;5039148;28;20029;-72
2021/04/19 05:17:06;;;;;;;9.13;6.70;;;7.50;75.20;;;;;;5039273;28;20063;-72
2021/04/19 05:19:31;;;;;;;11.52;6.93;;;7.50;74.80;;;;;;5039153;28;20052;-72
2021/04/19 05:21:57;;;;;;;8.25;6.93;;;7.60;74.80;;;;;;5039360;28;20068;-72
2021/04/19 05:24:23;;;;;;;7.03;6.22;;;7.70;74.10;;;;;;5039266;28;20400;-72
2021/04/19 05:26:48;;;;;;;7.65;6.45;;;7.80;74.30;;;;;;5038803;28;20057;-72
2021/04/19 05:29:14;;;;;;;7.82;6.53;;;7.80;74.30;;;;;;5038989;28;20034;-72
2021/04/19 05:31:40;;;;;;;7.07;6.15;;;7.90;74.70;;;;;;5038816;28;20026;-72
2021/04/19 05:34:06;;;;;;;7.72;6.68;;;8.00;73.30;;;;;;5038800;28;20030;-72
2021/04/19 05:36:32;;;;;;;7.75;6.47;;;8.10;73.70;;;;;;5039109;28;20021;-72
2021/04/19 05:38:58;;;;;;;6.75;5.95;;;8.20;73.20;;;;;;5039041;28;20060;-72
2021/04/19 05:41:24;;;;;;;7.45;5.85;;;8.20;72.20;;;;;;5038606;28;20025;-72
2021/04/19 05:43:51;;;;;;;8.55;6.70;;;8.30;72.20;;;;;;5038428;28;20041;-72
2021/04/19 05:46:18;;;;;;;6.93;5.82;;;8.40;72.00;;;;;;5038927;28;20052;-72
2021/04/19 05:48:44;;;;;;;7.38;6.55;;;8.50;72.30;;;;;;5038601;28;20053;-72
2021/04/19 05:51:17;;;;;;;6.70;6.00;;;8.60;72.30;;;;;;5038803;28;20049;-72
2021/04/19 05:53:42;;;;;;;7.63;6.10;;;8.70;71.70;;;;;;5038303;28;20432;-72
2021/04/19 05:56:27;;;;;;;8.00;6.78;;;8.80;71.90;;;;;;5038728;28;20021;-72
2021/04/19 05:59:05;;;;;;;7.82;6.20;;;8.90;71.30;;;;;;5038409;28;20024;-72
2021/04/19 06:01:35;;;;;;;8.95;6.60;;;8.90;70.50;;;;;;5038657;28;20034;-72
2021/04/19 06:04:27;;;;;;;7.95;6.07;;;8.80;72.70;;;;;;5038540;28;20064;-72
2021/04/19 06:07:13;;;;;;;10.23;7.10;;;8.90;71.50;;;;;;5038214;28;20409;-72
2021/04/19 06:09:50;;;;;;;8.52;7.63;;;9.00;70.60;;;;;;5037209;28;20325;-72
2021/04/19 06:12:20;;;;;;;7.05;6.28;;;9.00;70.00;;;;;;5038384;28;20029;-72
2021/04/19 06:14:49;;;;;;;7.45;6.65;;;9.10;69.90;;;;;;5038331;28;20053;-72
2021/04/19 06:17:15;;;;;;;8.70;6.80;;;9.10;69.50;;;;;;5038337;28;20017;-72
2021/04/19 06:19:45;;;;;;;7.53;6.80;;;9.10;70.00;;;;;;5038292;28;20083;-72
2021/04/19 06:22:16;;;;;;;6.65;5.95;;;9.20;71.00;;;;;;5037951;28;20030;-72
2021/04/19 06:24:49;;;;;;;8.07;7.05;;;9.30;69.70;;;;;;5037962;28;20037;-73
2021/04/19 06:27:20;;;;;;;8.50;7.18;;;9.40;71.40;;;;;;5038156;28;20041;-72
2021/04/19 06:29:46;;;;;;;8.50;6.88;;;9.60;69.80;;;;;;5038106;28;20033;-72
2021/04/19 06:32:14;;;;;;;7.38;6.63;;;9.80;67.90;;;;;;5037975;28;20029;-72
2021/04/19 06:34:39;;;;;;;8.27;7.10;;;10.00;67.20;;;;;;5037985;28;20030;-72
2021/04/19 06:37:07;;;;;;;7.68;6.05;;;10.40;67.40;;;;;;5037636;28;20398;-72
2021/04/19 06:39:33;;;;;;;8.45;6.13;;;10.80;66.20;;;;;;5037906;28;20026;-72
2021/04/19 06:42:02;;;;;;;5.90;5.30;;;11.40;65.40;;;;;;5037830;28;20043;-72
2021/04/19 06:44:28;;;;;;;6.28;5.13;;;11.70;67.40;;;;;;5037459;28;20083;-72
2021/04/19 06:46:55;;;;;;;5.75;5.07;;;12.30;63.80;;;;;;5037432;28;20073;-72
2021/04/19 06:49:21;;;;;;;6.07;5.22;;;12.50;62.00;;;;;;5037732;28;20037;-72
2021/04/19 06:51:48;;;;;;;6.43;5.82;;;12.70;61.80;;;;;;5037606;28;20103;-72
2021/04/19 06:54:14;;;;;;;6.70;6.00;;;12.60;62.50;;;;;;5036758;28;20037;-72
2021/04/19 06:56:42;;;;;;;9.05;5.97;;;12.50;62.60;;;;;;5037584;28;20025;-72
2021/04/19 06:59:19;;;;;;;11.70;7.75;;;12.40;62.90;;;;;;5037268;28;20025;-72
2021/04/19 07:01:53;;;;;;;6.85;6.15;;;12.30;64.90;;;;;;5037584;28;20033;-72
2021/04/19 07:04:23;;;;;;;8.70;7.80;;;12.40;65.20;;;;;;5037420;28;20033;-72
2021/04/19 07:06:49;;;;;;;8.40;7.40;;;12.40;64.20;;;;;;5037425;28;20033;-72
2021/04/19 07:09:28;;;;;;;10.23;7.10;;;12.40;64.10;;;;;;5037103;28;20402;-72
2021/04/19 07:12:03;;;;;;;9.30;8.30;;;12.50;64.70;;;;;;5037316;28;20026;-72
2021/04/19 07:14:31;;;;;;;9.63;8.43;;;12.70;64.20;;;;;;5037256;28;20021;-72
2021/04/19 07:16:57;;;;;;;9.50;8.45;;;12.90;63.90;;;;;;5037276;28;20099;-72
2021/04/19 07:19:23;;;;;;;13.15;9.15;;;13.00;64.70;;;;;;5037250;28;20037;-72
2021/04/19 07:21:50;;;;;;;12.05;8.85;;;12.70;65.00;;;;;;5037167;28;20029;-72
2021/04/19 07:24:16;;;;;;;11.95;10.07;;;12.30;66.50;;;;;;5036681;28;20033;-72
2021/04/19 07:26:43;;;;;;;11.88;10.68;;;12.50;66.30;;;;;;5036699;28;20049;-72
2021/04/19 07:29:09;;;;;;;11.00;9.90;;;13.00;65.00;;;;;;5037075;28;20080;-72
2021/04/19 07:31:50;;;;;;;11.63;9.93;;;13.60;63.30;;;;;;5037020;28;20049;-72
2021/04/19 07:34:24;;;;;;;10.25;9.15;;;13.70;62.70;;;;;;5036988;28;20314;-72
2021/04/19 07:37:11;;;;;;;10.32;9.23;;;13.70;62.40;;;;;;5037019;28;20026;-72
2021/04/19 07:39:41;;;;;;;11.85;10.43;;;13.10;63.90;;;;;;5036691;28;20022;-72
2021/04/19 07:42:11;;;;;;;11.52;10.32;;;12.40;64.90;;;;;;5036968;28;20031;-72
2021/04/19 07:44:42;;;;;;;11.20;9.68;;;11.90;66.80;;;;;;5036851;28;20026;-72
2021/04/19 07:47:31;;;;;;;11.55;10.35;;;11.70;67.80;;;;;;5036659;28;20034;-72
2021/04/19 07:50:12;;;;;;;13.68;10.43;;;11.50;69.10;;;;;;5036618;28;20033;-72
2021/04/19 07:52:40;;;;;;;14.23;10.55;;;11.20;70.30;;;;;;5036945;28;20037;-72
2021/04/19 07:55:14;;;;;;;12.23;10.95;;;11.00;69.80;;;;;;5036884;28;20034;-72
2021/04/19 07:57:41;;;;;;;10.88;9.77;;;11.40;69.70;;;;;;5036833;28;20025;-72
2021/04/19 08:00:09;;;;;;;11.93;10.48;;;11.90;67.20;;;;;;5036802;28;20025;-72
2021/04/19 08:02:35;;;;;;;12.18;10.15;;;11.90;67.90;;;;;;5036424;28;20083;-72
2021/04/19 08:05:04;;;;;;;13.30;10.90;;;11.70;69.10;;;;;;5037049;28;20033;-72
2021/04/19 08:07:31;;;;;;;12.88;10.40;;;11.50;69.00;;;;;;5040775;28;20057;-72
2021/04/19 08:10:04;;;;;;;11.60;10.40;;;11.40;69.40;;;;;;5040550;28;20421;-72
2021/04/19 08:12:41;;;;;;;11.25;10.13;;;11.90;68.90;;;;;;5040574;28;20034;-72
2021/04/19 08:15:17;;;;;;;11.38;9.70;;;12.70;66.40;;;;;;5039276;28;20387;-72
2021/04/19 08:17:42;;;;;;;;;;;12.80;65.60;;;;;;5040767;28;20034;-72
2021/04/19 08:20:14;;;;;;;10.90;8.83;;;13.00;64.50;;;;;;5040579;28;19952;-72
2021/04/19 08:22:43;;;;;;;9.60;8.45;;;12.90;63.30;;;;;;5040588;28;20424;-72
2021/04/19 08:25:21;;;;;;;9.93;7.90;;;12.80;63.50;;;;;;5040210;28;20061;-72
2021/04/19 08:28:13;;;;;;;10.77;9.35;;;12.50;65.60;;;;;;5040397;28;20113;-72
2021/04/19 08:30:42;;;;;;;9.75;8.75;;;12.40;65.00;;;;;;5040280;28;20033;-72
2021/04/19 08:33:10;;;;;;;10.10;8.98;;;12.20;68.50;;;;;;5040248;28;20021;-72
2021/04/19 08:35:37;;;;;;;10.18;8.77;;;12.00;67.10;;;;;;5039870;28;20028;-72
2021/04/19 08:38:04;;;;;;;9.70;8.75;;;11.80;67.00;;;;;;5040237;28;20021;-72
2021/04/19 08:40:31;;;;;;;9.48;8.50;;;11.70;68.80;;;;;;5040161;28;20017;-72
2021/04/19 08:42:57;;;;;;;11.95;10.00;;;11.50;68.70;;;;;;5040177;28;20072;-72
2021/04/19 08:45:24;;;;;;;11.57;9.57;;;11.40;68.40;;;;;;5039686;28;20417;-72
2021/04/19 08:47:51;;;;;;;10.45;9.20;;;11.30;69.70;;;;;;5040018;28;20025;-72
2021/04/19 08:50:21;;;;;;;11.63;8.93;;;11.20;71.20;;;;;;5039935;28;20021;-72
2021/04/19 08:52:47;;;;;;;12.02;9.77;;;11.20;69.60;;;;;;5039963;28;20056;-72
2021/04/19 08:55:14;;;;;;;13.27;9.98;;;11.20;69.70;;;;;;5039437;28;20424;-72
2021/04/19 08:57:44;;;;;;;11.07;9.55;;;11.30;70.30;;;;;;5039548;28;20429;-72
2021/04/19 09:00:17;;;;;;;12.30;10.27;;;11.30;69.90;;;;;;5039539;28;20025;-72
2021/04/19 09:02:44;;;;;;;10.65;9.57;;;11.30;71.40;;;;;;5039333;28;20037;-72
2021/04/19 09:05:15;;;;;;;10.55;9.45;;;11.30;70.80;;;;;;5039308;28;20029;-72
2021/04/19 09:07:43;;;;;;;10.88;9.77;;;11.20;70.60;;;;;;5039427;28;20029;-72
2021/04/19 09:10:12;;;;;;;11.32;10.15;;;11.10;69.90;;;;;;5039625;28;20087;-72
2021/04/19 09:12:37;;;;;;;12.30;9.65;;;11.00;71.80;;;;;;5039075;28;20120;-72
2021/04/19 09:15:17;;;;;;;13.13;10.40;;;11.00;72.30;;;;;;5039177;28;20041;-72
2021/04/19 09:17:43;;;;;;;12.07;10.45;;;11.10;72.60;;;;;;5038382;28;20092;-72
2021/04/19 09:20:13;;;;;;;15.00;11.23;;;11.20;70.00;;;;;;5039186;28;20402;-72
2021/04/19 09:22:39;;;;;;;12.57;10.70;;;11.20;71.70;;;;;;5039104;28;20083;-72
2021/04/19 09:25:13;;;;;;;12.05;10.68;;;11.30;71.80;;;;;;5039091;28;20049;-72
2021/04/19 09:27:56;;;;;;;14.55;11.25;;;11.50;68.50;;;;;;5039343;28;20103;-72
2021/04/19 09:30:21;;;;;;;13.05;10.32;;;11.90;68.30;;;;;;5038883;28;20053;-72
2021/04/19 09:32:48;;;;;;;12.77;10.77;;;13.00;69.50;;;;;;5039227;28;20053;-72
2021/04/19 09:35:38;;;;;;;11.15;10.05;;;13.20;66.20;;;;;;5038832;28;20022;-72
2021/04/19 09:38:04;;;;;;;12.55;10.18;;;13.10;64.30;;;;;;5038789;28;20025;-72
2021/04/19 09:40:30;;;;;;;14.05;9.65;;;12.80;66.40;;;;;;5038787;28;20022;-72
2021/04/19 09:42:56;;;;;;;14.43;10.00;;;12.70;68.10;;;;;;5038719;28;20036;-72
2021/04/19 09:45:40;;;;;;;10.48;9.15;;;12.60;65.40;;;;;;5038878;28;20049;-72
2021/04/19 09:48:06;;;;;;;10.05;8.98;;;12.40;64.30;;;;;;5038888;28;20377;-72
2021/04/19 09:50:32;;;;;;;10.68;9.57;;;12.10;65.90;;;;;;5038510;28;20108;-72
2021/04/19 09:52:58;;;;;;;10.38;9.27;;;11.90;67.80;;;;;;5038783;28;20053;-72
2021/04/19 09:55:23;;;;;;;11.75;9.15;;;11.80;69.10;;;;;;5038726;28;20310;-72
2021/04/19 09:57:50;;;;;;;10.85;8.93;;;11.70;69.10;;;;;;5038748;28;20033;-72
2021/04/19 10:00:17;;;;;;;9.65;8.32;;;11.50;69.90;;;;;;5038730;28;20357;-72
2021/04/19 10:02:43;;;;;;;9.75;8.43;;;11.40;67.40;;;;;;5038633;28;20096;-72
2021/04/19 10:05:13;;;;;;;9.85;8.85;;;11.40;71.50;;;;;;5038564;28;20036;-72
2021/04/19 10:07:44;;;;;;;9.43;8.00;;;11.50;68.60;;;;;;5038535;28;20116;-72
2021/04/19 10:10:11;;;;;;;9.80;7.53;;;11.50;67.50;;;;;;5038543;28;20033;-72
2021/04/19 10:12:45;;;;;;;5.88;5.28;;;11.40;68.40;;;;;;5037631;28;20049;-72
2021/04/19 10:15:22;;;;;;;2.65;2.25;;;11.40;67.00;;;;;;5041906;28;20033;-72
2021/04/19 10:17:49;;;;;;;3.22;2.45;;;11.20;59.60;;;;;;5052003;28;20029;-72
2021/04/19 10:20:19;;;;;;;5.72;4.47;;;11.10;61.20;;;;;;5057889;28;20025;-72
2021/04/19 10:22:46;;;;;;;2.17;1.80;;;11.10;62.80;;;;;;5058237;28;20346;-72
2021/04/19 10:25:12;;;;;;;3.28;2.30;;;11.00;60.20;;;;;;5057511;28;20045;-72
2021/04/19 10:27:40;;;;;;;2.67;1.88;;;11.00;60.70;;;;;;5057763;28;20025;-72
2021/04/19 10:30:19;;;;;;;2.80;2.22;;;10.90;64.20;;;;;;5057643;28;20421;-72
2021/04/19 10:32:45;;;;;;;2.88;2.42;;;10.90;65.90;;;;;;5057985;28;20029;-72
2021/04/19 10:35:32;;;;;;;2.83;1.80;;;10.90;64.10;;;;;;5057870;28;20340;-72
2021/04/19 10:37:58;;;;;;;;;;;10.80;63.90;;;;;;5058031;28;20421;-72
2021/04/19 10:40:24;;;;;;;3.35;2.25;;;10.60;64.90;;;;;;5057593;28;19905;-72
2021/04/19 10:42:50;;;;;;;2.28;1.77;;;10.10;69.40;;;;;;5057658;28;20429;-72
2021/04/19 10:45:16;;;;;;;2.00;1.67;;;9.70;70.60;;;;;;5057370;28;20104;-73
2021/04/19 10:47:42;;;;;;;2.50;1.55;;;9.40;71.80;;;;;;5057698;28;20059;-72
2021/04/19 10:50:10;;;;;;;2.15;1.60;;;9.10;74.60;;;;;;5057748;28;20045;-72
2021/04/19 10:52:38;;;;;;;2.38;2.17;;;8.90;75.70;;;;;;5057579;28;20360;-72
2021/04/19 10:55:09;;;;;;;4.05;2.13;;;8.80;78.10;;;;;;5057694;28;20303;-72
2021/04/19 10:57:35;;;;;;;2.60;1.70;;;9.00;80.20;;;;;;5057583;28;20037;-72
2021/04/19 11:00:04;;;;;;;2.03;1.17;;;9.10;76.20;;;;;;5057205;28;20067;-72
2021/04/19 11:02:31;;;;;;;1.67;1.23;;;9.30;73.00;;;;;;5057023;28;20150;-72
2021/04/19 11:04:57;;;;;;;1.20;1.00;;;9.50;71.60;;;;;;5057344;28;20124;-72
2021/04/19 11:07:35;;;;;;;1.08;0.80;;;9.50;73.20;;;;;;5057088;28;20029;-72
2021/04/19 11:10:22;;;;;;;1.35;0.98;;;9.50;70.90;;;;;;5057370;28;20029;-72
2021/04/19 11:13:05;;;;;;;3.53;1.15;;;9.50;71.90;;;;;;5057301;28;20032;-72
2021/04/19 11:15:34;;;;;;;2.00;0.95;;;9.50;72.50;;;;;;5057156;28;20052;-72
2021/04/19 11:18:01;;;;;;;1.60;1.23;;;9.50;72.10;;;;;;5056872;28;20029;-72
2021/04/19 11:20:30;;;;;;;1.77;1.20;;;9.30;71.80;;;;;;5056857;28;20025;-72
2021/04/19 11:22:59;;;;;;;3.63;1.30;;;9.40;75.00;;;;;;5057094;28;20142;-72
2021/04/19 11:25:30;;;;;;;1.77;1.00;;;9.40;74.70;;;;;;5056571;28;20067;-72
2021/04/19 11:28:16;;;;;;;2.22;1.35;;;9.40;72.00;;;;;;5056778;28;20306;-72
2021/04/19 11:30:42;;;;;;;2.03;1.50;;;9.20;70.70;;;;;;5056985;28;20025;-72
2021/04/19 11:33:19;;;;;;;1.55;1.20;;;8.90;73.80;;;;;;5057012;28;20313;-72
2021/04/19 11:35:50;;;;;;;5.57;2.40;;;8.60;75.80;;;;;;5056937;28;20029;-72
2021/04/19 11:38:22;;;;;;;3.10;1.75;;;8.50;73.30;;;;;;5057040;28;20313;-74
2021/04/19 11:40:50;;;;;;;3.40;1.73;;;8.60;76.90;;;;;;5056415;28;20055;-72
2021/04/19 11:43:23;;;;;;;2.50;2.08;;;8.70;74.60;;;;;;5056913;28;20033;-72
2021/04/19 11:46:10;;;;;;;2.00;1.80;;;8.80;83.30;;;;;;5056870;28;20071;-72
2021/04/19 11:48:46;;;;;;;1.98;1.73;;;8.90;78.00;;;;;;5056422;28;20024;-72
2021/04/19 11:51:14;;;;;;;2.40;1.70;;;8.90;77.70;;;;;;5056753;28;20029;-72
2021/04/19 11:53:42;;;;;;;3.13;1.90;;;9.00;77.50;;;;;;5056524;28;20078;-72
2021/04/19 11:56:10;;;;;;;2.38;1.75;;;9.10;74.30;;;;;;5056483;28;20146;-72
2021/04/19 11:58:38;;;;;;;2.75;1.70;;;9.20;75.60;;;;;;5056726;28;20030;-72
2021/04/19 12:01:05;;;;;;;2.70;1.88;;;9.30;73.80;;;;;;5056400;28;20033;-72
2021/04/19 12:03:31;;;;;;;2.85;1.65;;;9.50;76.20;;;;;;5056318;28;20067;-72
2021/04/19 12:05:56;;;;;;;2.35;1.80;;;9.60;74.90;;;;;;5056652;28;20055;-72
2021/04/19 12:08:23;;;;;;;2.00;1.65;;;9.70;70.50;;;;;;5056621;28;20033;-72
2021/04/19 12:10:49;;;;;;;2.33;1.80;;;9.90;73.90;;;;;;5056304;28;20063;-72
2021/04/19 12:13:15;;;;;;;2.50;1.40;;;10.30;75.30;;;;;;5056309;28;20017;-72
2021/04/19 12:15:42;;;;;;;2.42;1.73;;;10.60;71.40;;;;;;5056468;28;20040;-72
2021/04/19 12:18:08;;;;;;;1.88;1.40;;;10.80;68.30;;;;;;5056555;28;20021;-72
2021/04/19 12:20:34;;;;;;;1.50;1.27;;;11.00;64.50;;;;;;5056244;28;20029;-72
2021/04/19 12:23:00;;;;;;;1.70;1.02;;;11.10;64.20;;;;;;5056485;28;20021;-72
2021/04/19 12:25:26;;;;;;;2.30;1.05;;;11.30;62.00;;;;;;5056141;28;20318;-72
2021/04/19 12:27:52;;;;;;;1.83;1.20;;;11.50;64.30;;;;;;5056194;28;20496;-72
2021/04/19 12:30:18;;;;;;;1.42;0.98;;;11.90;62.20;;;;;;5056430;28;20104;-72
2021/04/19 12:32:43;;;;;;;2.55;0.52;;;12.20;58.90;;;;;;5056345;28;20409;-72
2021/04/19 12:35:10;;;;;;;1.25;0.80;;;12.40;61.90;;;;;;5056359;28;20048;-72
2021/04/19 12:37:37;;;;;;;1.20;0.70;;;12.60;62.30;;;;;;5056402;28;20041;-72
2021/04/19 12:40:03;;;;;;;1.40;1.10;;;12.70;58.10;;;;;;5056369;28;20059;-72
2021/04/19 12:42:29;;;;;;;0.93;0.70;;;12.50;59.70;;;;;;5055946;28;20033;-72
2021/04/19 12:44:55;;;;;;;1.10;0.82;;;12.40;58.50;;;;;;5056192;28;20029;-72
2021/04/19 12:47:20;;;;;;;1.95;0.80;;;12.10;60.60;;;;;;5056292;28;20119;-72
2021/04/19 12:49:46;;;;;;;1.10;0.80;;;11.70;61.50;;;;;;5056269;28;20029;-72
2021/04/19 12:52:12;;;;;;;1.00;0.68;;;11.50;62.20;;;;;;5057957;28;20033;-72
2021/04/19 12:54:37;;;;;;;1.10;0.70;;;11.30;61.10;;;;;;5059856;28;20059;-72
2021/04/19 12:57:03;;;;;;;1.10;0.80;;;11.40;62.50;;;;;;5059797;28;20128;-72